Time;durP1;ratioP1;P1;durP2;ratioP2;P2;SDS_P1;SDS_P2;PMS_P1;PMS_P2;Temp;Humidity;BMP_temperature;BMP_pressure;BME280_temperature;BME280_humidity;BME280_pressure;Samples;Min_cycle;Max_cycle;Signal;HPM_P1;HPM_P2
2022/11/22 00:02:48;;;;;;;18.25;9.52;;;10.50;99.90;;;;;;5029169;28;20404;-53
2022/11/22 00:05:52;;;;;;;9.05;4.85;;;10.50;99.90;;;;;;5029262;28;20044;-54
2022/11/22 00:08:56;;;;;;;7.53;2.75;;;10.50;99.90;;;;;;5029257;28;20047;-55
2022/11/22 00:12:00;;;;;;;4.53;1.92;;;10.50;99.90;;;;;;5028441;28;20049;-54
2022/11/22 00:15:05;;;;;;;3.60;1.58;;;10.50;99.90;;;;;;5027897;28;20064;-53
2022/11/22 00:18:08;;;;;;;4.53;1.88;;;10.50;99.90;;;;;;5028911;28;20079;-53
2022/11/22 00:21:12;;;;;;;5.10;1.65;;;10.70;99.90;;;;;;5028402;28;20041;-55
2022/11/22 00:24:16;;;;;;;2.97;1.10;;;10.70;99.90;;;;;;5028589;28;20057;-55
2022/11/22 00:27:22;;;;;;;2.70;1.38;;;10.80;99.90;;;;;;5029106;28;20040;-55
2022/11/22 00:30:26;;;;;;;3.72;1.20;;;10.70;99.90;;;;;;5029368;28;20384;-55
2022/11/22 00:33:30;;;;;;;2.25;1.38;;;10.70;99.90;;;;;;5028228;28;20060;-53
2022/11/22 00:36:34;;;;;;;2.03;0.90;;;10.70;99.90;;;;;;5028934;28;20056;-58
2022/11/22 00:39:38;;;;;;;1.92;1.20;;;10.70;99.90;;;;;;5029017;28;20045;-54
2022/11/22 00:42:42;;;;;;;2.47;1.50;;;10.80;99.90;;;;;;5028434;28;20044;-56
2022/11/22 00:45:46;;;;;;;5.95;1.77;;;10.80;99.90;;;;;;5029457;28;20049;-55
2022/11/22 00:48:52;;;;;;;4.93;1.50;;;10.80;99.90;;;;;;5028866;28;20044;-55
2022/11/22 00:51:57;;;;;;;3.95;1.77;;;10.80;99.90;;;;;;5028437;28;20049;-55
2022/11/22 00:55:01;;;;;;;5.60;2.25;;;10.70;99.90;;;;;;5028198;28;20068;-55
2022/11/22 00:58:06;;;;;;;4.45;1.73;;;10.70;99.90;;;;;;5028716;28;20060;-56
2022/11/22 01:01:10;;;;;;;8.57;2.45;;;10.70;99.90;;;;;;5028300;28;20411;-56
2022/11/22 01:04:14;;;;;;;9.15;2.55;;;10.70;99.90;;;;;;5028124;28;20519;-54
2022/11/22 01:07:18;;;;;;;6.70;2.78;;;10.80;99.90;;;;;;5029393;28;20651;-56
2022/11/22 01:10:23;;;;;;;7.22;2.47;;;10.80;99.90;;;;;;5032597;28;20405;-55
2022/11/22 01:13:28;;;;;;;11.10;2.88;;;10.80;99.90;;;;;;5031387;28;20052;-53
2022/11/22 01:16:32;;;;;;;5.03;2.05;;;10.80;99.90;;;;;;5032209;28;20044;-54
2022/11/22 01:19:36;;;;;;;6.00;1.80;;;10.70;99.90;;;;;;5031836;28;20048;-54
2022/11/22 01:22:40;;;;;;;8.93;2.40;;;10.80;99.90;;;;;;5031487;28;20044;-54
2022/11/22 01:25:44;;;;;;;6.82;2.00;;;10.80;99.90;;;;;;5032149;28;20041;-55
2022/11/22 01:28:49;;;;;;;3.53;1.60;;;10.80;99.90;;;;;;5032028;28;20053;-54
2022/11/22 01:31:52;;;;;;;5.25;1.50;;;10.70;99.90;;;;;;5031736;28;20049;-53
2022/11/22 01:34:56;;;;;;;6.72;2.00;;;10.70;99.90;;;;;;5031219;28;20116;-53
2022/11/22 01:38:01;;;;;;;2.25;1.15;;;10.70;99.90;;;;;;5031774;28;20045;-55
2022/11/22 01:41:05;;;;;;;2.70;1.00;;;10.70;99.90;;;;;;5031793;28;20041;-54
2022/11/22 01:44:22;;;;;;;6.93;1.15;;;10.60;99.90;;;;;;5030981;28;20044;-56
2022/11/22 01:47:26;;;;;;;4.35;1.10;;;10.60;99.90;;;;;;5032208;28;20247;-57
2022/11/22 01:50:34;;;;;;;7.57;1.00;;;10.70;99.90;;;;;;5032041;28;20052;-56
2022/11/22 01:53:38;;;;;;;3.05;0.75;;;10.60;99.90;;;;;;5029909;28;20424;-57
2022/11/22 01:56:46;;;;;;;2.85;0.88;;;10.60;99.90;;;;;;5031939;28;20052;-57
2022/11/22 01:59:58;;;;;;;5.68;0.98;;;10.50;99.90;;;;;;5031780;28;20053;-57
2022/11/22 02:03:06;;;;;;;;;;;10.50;99.90;;;;;;5031639;28;20109;-56
2022/11/22 02:06:10;;;;;;;2.67;0.80;;;10.50;99.90;;;;;;5031692;28;19924;-58
2022/11/22 02:09:16;;;;;;;1.42;0.75;;;10.50;99.90;;;;;;5031975;28;20602;-56
2022/11/22 02:12:26;;;;;;;4.78;1.00;;;10.60;99.90;;;;;;5030863;28;20053;-58
2022/11/22 02:15:31;;;;;;;2.92;0.60;;;10.60;99.90;;;;;;5030653;28;20048;-58
2022/11/22 02:18:37;;;;;;;1.67;0.35;;;10.70;99.90;;;;;;5030132;28;20052;-56
2022/11/22 02:21:42;;;;;;;2.53;0.47;;;10.90;99.90;;;;;;5030962;28;20065;-56
2022/11/22 02:24:56;;;;;;;3.65;0.52;;;11.00;99.90;;;;;;5030225;28;20048;-55
2022/11/22 02:28:00;;;;;;;0.70;0.40;;;11.00;99.90;;;;;;5030771;28;20056;-55
2022/11/22 02:31:05;;;;;;;0.85;0.30;;;10.90;99.90;;;;;;5031182;28;20519;-57
2022/11/22 02:34:10;;;;;;;1.75;0.45;;;11.10;99.90;;;;;;5029874;28;20056;-56
2022/11/22 02:37:26;;;;;;;2.90;0.40;;;11.00;99.90;;;;;;5030395;28;20203;-55
2022/11/22 02:40:41;;;;;;;1.77;0.30;;;10.80;99.90;;;;;;5030667;28;20420;-56
2022/11/22 02:43:46;;;;;;;2.03;0.40;;;10.70;99.90;;;;;;5029699;28;20083;-56
2022/11/22 02:46:52;;;;;;;0.30;0.30;;;10.80;99.90;;;;;;5030517;28;20052;-54
2022/11/22 02:49:56;;;;;;;0.63;0.25;;;10.80;99.90;;;;;;5030477;28;20048;-54
2022/11/22 02:53:00;;;;;;;0.65;0.22;;;11.00;99.90;;;;;;5029771;28;20056;-58
2022/11/22 02:56:04;;;;;;;0.30;0.25;;;10.90;99.90;;;;;;5029377;28;20052;-57
2022/11/22 02:59:09;;;;;;;1.33;0.30;;;11.00;99.90;;;;;;5030228;28;20052;-54
2022/11/22 03:02:13;;;;;;;1.75;0.30;;;11.00;99.90;;;;;;5029731;28;20057;-53
2022/11/22 03:05:17;;;;;;;2.15;0.43;;;11.00;99.90;;;;;;5029647;28;20061;-55
2022/11/22 03:08:21;;;;;;;0.60;0.40;;;11.10;99.90;;;;;;5030025;28;20044;-54
2022/11/22 03:11:26;;;;;;;0.70;0.40;;;11.10;99.90;;;;;;5029360;28;20048;-56
2022/11/22 03:14:30;;;;;;;1.00;0.38;;;11.20;99.90;;;;;;5029195;28;20117;-53
2022/11/22 03:17:34;;;;;;;1.67;0.50;;;11.30;99.90;;;;;;5030155;28;20044;-59
2022/11/22 03:20:38;;;;;;;4.28;0.50;;;11.40;99.90;;;;;;5029731;28;20052;-57
2022/11/22 03:23:42;;;;;;;2.03;0.50;;;11.40;99.90;;;;;;5028833;28;20041;-55
2022/11/22 03:26:47;;;;;;;1.05;0.50;;;11.40;99.90;;;;;;5029572;28;20048;-55
2022/11/22 03:29:51;;;;;;;2.10;0.50;;;11.30;99.90;;;;;;5029219;28;20048;-56
2022/11/22 03:32:56;;;;;;;6.85;1.65;;;11.30;99.90;;;;;;5029344;28;20119;-56
2022/11/22 03:36:02;;;;;;;1.52;0.73;;;11.00;99.90;;;;;;5029615;28;20040;-60
2022/11/22 03:39:07;;;;;;;1.63;0.80;;;10.90;99.90;;;;;;5029710;28;20507;-58
2022/11/22 03:42:11;;;;;;;4.65;1.00;;;10.70;99.90;;;;;;5029347;28;20044;-54
2022/11/22 03:45:15;;;;;;;3.45;0.65;;;10.60;99.90;;;;;;5027384;28;20566;-56
2022/11/22 03:48:18;;;;;;;1.63;0.40;;;10.60;99.90;;;;;;5029615;28;20053;-56
2022/11/22 03:51:23;;;;;;;5.13;0.50;;;10.70;99.90;;;;;;5029421;28;20041;-56
2022/11/22 03:54:27;;;;;;;1.75;0.50;;;10.70;99.90;;;;;;5027652;28;20056;-57
2022/11/22 03:57:31;;;;;;;1.33;0.40;;;10.70;99.90;;;;;;5029474;28;20056;-58
2022/11/22 04:00:35;;;;;;;0.85;0.50;;;10.70;99.90;;;;;;5029206;28;20052;-57
2022/11/22 04:03:39;;;;;;;4.07;0.60;;;10.70;99.90;;;;;;5027603;28;20530;-58
2022/11/22 04:06:43;;;;;;;0.85;0.40;;;10.60;99.90;;;;;;5029185;28;20413;-58
2022/11/22 04:09:47;;;;;;;4.13;0.57;;;10.60;99.90;;;;;;5029307;28;20044;-57
2022/11/22 04:12:58;;;;;;;5.38;0.90;;;10.50;99.90;;;;;;5028940;28;20068;-56
2022/11/22 04:16:02;;;;;;;3.70;1.30;;;10.50;99.90;;;;;;5029230;28;20661;-57
2022/11/22 04:19:07;;;;;;;1.77;1.08;;;10.40;99.90;;;;;;5028779;28;20416;-56
2022/11/22 04:22:10;;;;;;;3.55;0.90;;;10.40;99.90;;;;;;5029015;28;20044;-56
2022/11/22 04:25:14;;;;;;;4.57;1.17;;;10.30;99.90;;;;;;5028171;28;20045;-56
2022/11/22 04:28:24;;;;;;;1.63;1.30;;;10.30;99.90;;;;;;5028966;28;20408;-58
2022/11/22 04:34:50;;;;;;;4.85;1.90;;;10.10;99.90;;;;;;5028328;28;20044;-56
2022/11/22 04:37:54;;;;;;;6.28;1.45;;;10.10;99.90;;;;;;5029074;28;20623;-57
2022/11/22 04:40:58;;;;;;;1.83;1.35;;;10.10;99.90;;;;;;5029368;28;20040;-59
2022/11/22 05:05:01;;;;;;;2.25;0.70;;;10.60;99.90;;;;;;5031163;28;20060;-60
2022/11/22 05:08:06;;;;;;;3.42;1.00;;;10.60;99.90;;;;;;5032335;28;20060;-55
2022/11/22 05:11:11;;;;;;;1.80;0.30;;;10.50;99.90;;;;;;5032245;28;20049;-57
2022/11/22 05:17:57;;;;;;;3.22;0.43;;;10.90;99.90;;;;;;5032062;28;20542;-58
2022/11/22 05:21:06;;;;;;;41.83;3.05;;;11.00;99.90;;;;;;5032434;28;20072;-60
2022/11/22 05:24:11;;;;;;;20.83;2.15;;;10.60;99.90;;;;;;5031534;28;20044;-59
2022/11/22 05:27:15;;;;;;;2.70;1.85;;;10.30;99.90;;;;;;5032166;28;20052;-58
2022/11/22 05:30:18;;;;;;;3.22;0.93;;;10.20;99.90;;;;;;5031941;28;20048;-60
2022/11/22 05:33:22;;;;;;;1.30;0.40;;;10.30;99.90;;;;;;5031730;28;20044;-58
2022/11/22 05:36:30;;;;;;;0.85;0.47;;;10.50;99.90;;;;;;5031877;28;20275;-58
2022/11/22 05:39:34;;;;;;;2.50;0.60;;;10.70;99.90;;;;;;5032525;28;20396;-59
2022/11/22 05:42:38;;;;;;;16.92;1.35;;;10.60;99.90;;;;;;5031756;28;20057;-61
2022/11/22 05:45:42;;;;;;;2.70;0.93;;;10.50;99.90;;;;;;5031743;28;20394;-58
2022/11/22 05:48:47;;;;;;;1.30;1.20;;;10.30;99.90;;;;;;5031936;28;20343;-59
2022/11/22 05:51:50;;;;;;;2.40;1.17;;;10.40;99.90;;;;;;5031827;28;20048;-60
2022/11/22 05:54:54;;;;;;;0.80;0.50;;;10.40;99.90;;;;;;5030596;28;20072;-61
2022/11/22 05:58:00;;;;;;;2.10;0.32;;;10.60;99.90;;;;;;5031718;28;20069;-58
2022/11/22 06:01:09;;;;;;;0.60;0.30;;;10.80;99.90;;;;;;5031515;28;20052;-58
2022/11/22 06:04:15;;;;;;;0.60;0.40;;;10.90;99.90;;;;;;5030797;28;20037;-61
2022/11/22 06:07:38;;;;;;;0.32;0.30;;;11.00;99.90;;;;;;5031134;28;20044;-59
2022/11/22 06:10:42;;;;;;;2.08;0.38;;;11.10;99.90;;;;;;5031075;28;20550;-59
2022/11/22 06:13:48;;;;;;;0.20;0.20;;;11.10;99.90;;;;;;5030250;28;20643;-59
2022/11/22 06:16:52;;;;;;;0.20;0.13;;;11.20;99.90;;;;;;5029822;28;20036;-59
2022/11/22 06:19:56;;;;;;;0.77;0.20;;;11.20;99.90;;;;;;5030226;28;20044;-60
2022/11/22 06:23:00;;;;;;;0.20;0.20;;;11.20;99.90;;;;;;5030434;28;20048;-56
2022/11/22 06:26:13;;;;;;;0.60;0.40;;;11.20;99.90;;;;;;5030606;28;20060;-59
2022/11/22 06:29:36;;;;;;;0.75;0.40;;;11.20;99.90;;;;;;5030847;28;20037;-60
2022/11/22 06:32:40;;;;;;;1.38;0.20;;;11.20;99.90;;;;;;5030755;28;20049;-59
2022/11/22 06:35:45;;;;;;;0.45;0.25;;;11.10;99.90;;;;;;5030370;28;20064;-59
2022/11/22 06:38:50;;;;;;;0.85;0.32;;;11.20;99.90;;;;;;5030703;28;20052;-59
2022/11/22 06:41:54;;;;;;;0.40;0.30;;;11.20;99.90;;;;;;5030433;28;20075;-61
2022/11/22 06:44:58;;;;;;;0.63;0.30;;;11.10;99.90;;;;;;5029923;28;20045;-61
2022/11/22 06:48:21;;;;;;;1.38;0.30;;;11.20;99.90;;;;;;5030382;28;20041;-57
2022/11/22 06:51:27;;;;;;;2.38;0.20;;;11.20;99.90;;;;;;5030072;28;20410;-58
2022/11/22 06:54:31;;;;;;;1.17;0.40;;;11.30;99.90;;;;;;5029896;28;20049;-58
2022/11/22 07:01:05;;;;;;;0.60;0.30;;;11.30;99.90;;;;;;5030575;28;20052;-56
2022/11/22 07:04:10;;;;;;;1.55;0.30;;;11.40;99.90;;;;;;5029940;28;20044;-57
2022/11/22 07:07:14;;;;;;;0.90;0.30;;;11.50;99.90;;;;;;5019673;28;20040;-57
2022/11/22 07:10:18;;;;;;;2.13;0.98;;;11.50;99.90;;;;;;5015621;28;20052;-59
2022/11/22 07:13:23;;;;;;;0.90;0.45;;;11.50;99.90;;;;;;5011699;28;20068;-59
2022/11/22 07:16:46;;;;;;;0.43;0.25;;;11.50;99.90;;;;;;5009256;28;20049;-60
2022/11/22 07:19:50;;;;;;;0.50;0.20;;;11.50;99.90;;;;;;5020832;28;20044;-61
2022/11/22 07:22:54;;;;;;;0.10;0.10;;;11.60;99.90;;;;;;5013361;28;20412;-60
2022/11/22 07:25:58;;;;;;;1.08;0.50;;;11.60;99.90;;;;;;5014652;28;20045;-58
2022/11/22 07:29:04;;;;;;;0.90;0.43;;;11.60;99.90;;;;;;5021120;28;20044;-59
2022/11/22 07:32:08;;;;;;;3.03;0.60;;;11.60;99.90;;;;;;5010013;28;20127;-59
2022/11/22 07:35:14;;;;;;;3.25;0.80;;;11.50;99.90;;;;;;5011658;28;20056;-61
2022/11/22 07:38:19;;;;;;;3.42;1.58;;;11.50;99.90;;;;;;5015661;28;20056;-58
2022/11/22 07:41:23;;;;;;;2.80;1.75;;;11.50;99.90;;;;;;5022935;28;20049;-57
2022/11/22 07:44:28;;;;;;;2.45;1.58;;;11.40;99.90;;;;;;5025781;28;20404;-58
2022/11/22 07:50:55;;;;;;;10.93;2.20;;;11.40;99.90;;;;;;5022123;28;20499;-59
2022/11/22 07:54:17;;;;;;;26.02;4.65;;;11.40;99.90;;;;;;5016984;28;20048;-59
2022/11/22 07:57:22;;;;;;;193.68;13.23;;;11.40;99.90;;;;;;5025249;28;20057;-59
2022/11/22 08:00:26;;;;;;;60.85;6.85;;;11.30;99.90;;;;;;5028900;28;20048;-59
2022/11/22 08:03:49;;;;;;;6.20;4.43;;;11.30;99.90;;;;;;5018536;28;20036;-58
2022/11/22 08:06:53;;;;;;;5.97;3.67;;;11.30;99.90;;;;;;5023894;28;20041;-59
2022/11/22 08:09:57;;;;;;;6.63;4.00;;;11.30;99.90;;;;;;5022495;28;20056;-58
2022/11/22 08:13:20;;;;;;;7.43;5.30;;;11.30;99.90;;;;;;5019074;28;20048;-59
2022/11/22 08:16:42;;;;;;;7.55;4.80;;;11.20;99.90;;;;;;5026105;28;20056;-57
2022/11/22 08:20:10;;;;;;;6.40;4.35;;;11.20;99.90;;;;;;5019732;28;20056;-57
2022/11/22 08:23:32;;;;;;;7.57;3.80;;;11.30;99.90;;;;;;5031574;28;20044;-58
2022/11/22 08:26:37;;;;;;;5.55;3.55;;;11.30;99.90;;;;;;5026777;28;20050;-56
2022/11/22 08:29:41;;;;;;;5.10;2.75;;;11.30;99.90;;;;;;5018903;28;20060;-57
2022/11/22 08:32:46;;;;;;;6.85;2.83;;;11.40;99.90;;;;;;5027958;28;20088;-59
2022/11/22 08:36:10;;;;;;;3.90;2.53;;;11.40;99.90;;;;;;5025589;28;20048;-55
2022/11/22 08:39:14;;;;;;;2.67;2.10;;;11.40;99.90;;;;;;5029467;28;20057;-60
2022/11/22 08:42:21;;;;;;;2.90;1.92;;;11.50;99.90;;;;;;5027833;28;20049;-60
2022/11/22 08:45:25;;;;;;;4.15;2.90;;;11.40;99.90;;;;;;5013827;28;20053;-60
2022/11/22 08:48:32;;;;;;;5.28;2.58;;;11.30;99.90;;;;;;5012712;28;20052;-56
2022/11/22 08:51:36;;;;;;;4.13;1.70;;;11.20;99.90;;;;;;5027041;28;20044;-57
2022/11/22 08:54:41;;;;;;;6.60;1.40;;;11.00;99.90;;;;;;5027217;28;20052;-59
2022/11/22 08:57:45;;;;;;;3.92;1.20;;;10.90;99.90;;;;;;5021572;28;20052;-57
2022/11/22 09:00:49;;;;;;;1.40;0.85;;;10.70;99.90;;;;;;5016550;28;20520;-59
2022/11/22 09:03:53;;;;;;;1.33;0.80;;;10.60;99.90;;;;;;5021986;28;20531;-58
2022/11/22 09:06:59;;;;;;;1.13;0.60;;;10.50;99.90;;;;;;5029061;28;20053;-54
2022/11/22 09:10:06;;;;;;;0.98;0.60;;;10.50;99.90;;;;;;5016879;28;20052;-58
2022/11/22 09:13:11;;;;;;;0.90;0.60;;;10.40;99.90;;;;;;5019699;28;20515;-63
2022/11/22 09:16:18;;;;;;;2.78;0.80;;;10.30;99.90;;;;;;5024419;28;20044;-60
2022/11/22 09:19:22;;;;;;;1.23;0.68;;;10.30;99.90;;;;;;5028301;28;20052;-61
2022/11/22 09:22:26;;;;;;;0.93;0.40;;;10.20;99.90;;;;;;5018901;28;20049;-57
2022/11/22 09:25:57;;;;;;;0.57;0.55;;;10.20;99.90;;;;;;5024801;28;20048;-57
2022/11/22 09:29:39;;;;;;;1.42;0.30;;;10.10;99.90;;;;;;5023964;28;20036;-57
2022/11/22 09:32:44;;;;;;;0.52;0.38;;;10.00;99.90;;;;;;5021845;28;20052;-57
2022/11/22 09:35:47;;;;;;;0.57;0.30;;;9.90;99.90;;;;;;5024754;28;20040;-56
2022/11/22 09:38:52;;;;;;;0.90;0.57;;;9.90;99.90;;;;;;5013958;28;20046;-58
2022/11/22 09:42:20;;;;;;;1.75;0.40;;;9.80;99.90;;;;;;5014707;28;20038;-59
2022/11/22 09:46:13;;;;;;;0.73;0.50;;;9.70;99.90;;;;;;5014136;28;20030;-57
2022/11/22 09:49:24;;;;;;;0.82;0.60;;;9.70;99.90;;;;;;5017553;28;20477;-59
2022/11/22 09:52:52;;;;;;;2.05;0.80;;;9.60;99.90;;;;;;5024015;28;20037;-61
2022/11/22 09:56:02;;;;;;;1.33;0.70;;;9.60;99.90;;;;;;5030120;28;20044;-58
2022/11/22 09:59:19;;;;;;;2.03;0.80;;;9.50;99.90;;;;;;5029072;28;20041;-57
2022/11/22 10:02:42;;;;;;;1.45;0.60;;;9.40;99.90;;;;;;5028240;28;20500;-57
2022/11/22 10:05:50;;;;;;;;;;;9.40;99.90;;;;;;5027160;28;20037;-55
2022/11/22 10:09:04;;;;;;;0.75;0.70;;;9.20;99.90;;;;;;5025403;28;19920;-58
2022/11/22 10:12:29;;;;;;;35.00;2.55;;;9.10;99.90;;;;;;5025900;28;20037;-57
2022/11/22 10:16:16;;;;;;;1.27;0.80;;;9.00;99.90;;;;;;5024582;28;20048;-58
2022/11/22 10:19:28;;;;;;;1.55;0.70;;;8.90;99.90;;;;;;5020719;28;20029;-58
2022/11/22 10:22:52;;;;;;;1.45;0.90;;;8.80;99.90;;;;;;5024396;28;20041;-60
2022/11/22 10:26:24;;;;;;;3.17;0.85;;;8.70;99.90;;;;;;5018415;28;20037;-62
2022/11/22 10:29:48;;;;;;;3.10;1.03;;;8.60;99.90;;;;;;5024078;28;20021;-59
2022/11/22 10:33:23;;;;;;;1.95;0.90;;;8.50;99.90;;;;;;5020929;28;20282;-58
2022/11/22 10:40:13;;;;;;;2.70;0.60;;;8.30;99.90;;;;;;5029685;28;20393;-58
2022/11/22 10:43:23;;;;;;;4.63;0.90;;;8.20;99.90;;;;;;5026168;28;20029;-59
2022/11/22 10:46:35;;;;;;;10.90;1.00;;;8.20;99.90;;;;;;5025321;28;20037;-61
2022/11/22 10:49:59;;;;;;;1.40;0.73;;;8.20;99.90;;;;;;5023853;28;20044;-61
2022/11/22 10:53:23;;;;;;;0.85;0.60;;;8.20;99.90;;;;;;5025627;28;20489;-58
2022/11/22 10:56:38;;;;;;;1.52;0.80;;;8.10;99.90;;;;;;5024624;28;20029;-57
2022/11/22 11:00:25;;;;;;;2.13;0.70;;;8.10;99.90;;;;;;5023259;28;20058;-55
2022/11/22 11:03:43;;;;;;;1.58;0.80;;;8.10;99.90;;;;;;5023370;28;20033;-56
2022/11/22 11:06:55;;;;;;;1.30;0.90;;;8.10;99.90;;;;;;5027440;28;20029;-61
2022/11/22 11:10:04;;;;;;;3.90;1.08;;;8.10;99.90;;;;;;5027785;28;20033;-60
2022/11/22 11:13:25;;;;;;;3.72;0.98;;;8.10;99.90;;;;;;5032373;28;20042;-60
2022/11/22 11:16:32;;;;;;;1.88;0.60;;;8.10;99.90;;;;;;5026788;28;20041;-58
2022/11/22 11:19:42;;;;;;;0.93;0.60;;;8.00;99.90;;;;;;5019613;28;20029;-59
2022/11/22 11:23:04;;;;;;;0.68;0.60;;;8.00;99.90;;;;;;5025413;28;20041;-58
2022/11/22 11:26:31;;;;;;;4.13;0.88;;;8.00;99.90;;;;;;5018593;28;20041;-58
2022/11/22 11:29:41;;;;;;;1.02;0.60;;;8.00;99.90;;;;;;5024688;28;20025;-59
2022/11/22 11:32:55;;;;;;;1.58;0.70;;;8.00;99.90;;;;;;5035751;28;20049;-59
2022/11/22 11:36:23;;;;;;;1.38;0.60;;;7.90;99.90;;;;;;5018767;28;20056;-59
2022/11/22 11:39:33;;;;;;;0.68;0.50;;;7.90;99.90;;;;;;5020824;28;20049;-59
2022/11/22 11:46:13;;;;;;;;;;;7.80;99.90;;;;;;5027311;28;20408;-57
2022/11/22 11:49:23;;;;;;;5.22;0.80;;;7.80;99.90;;;;;;5030667;28;19916;-58
2022/11/22 11:52:29;;;;;;;1.13;0.70;;;7.70;99.90;;;;;;5031761;28;20032;-58
2022/11/22 11:55:35;;;;;;;2.00;0.73;;;7.70;99.90;;;;;;5028476;28;20048;-60
2022/11/22 11:58:40;;;;;;;1.55;0.80;;;7.70;99.90;;;;;;5031599;28;20041;-55
2022/11/22 12:05:33;;;;;;;2.05;1.25;;;7.60;99.90;;;;;;5028879;28;20029;-57
2022/11/22 12:08:38;;;;;;;1.65;0.90;;;7.60;99.90;;;;;;5034898;28;20567;-58
2022/11/22 12:11:48;;;;;;;1.55;0.82;;;7.60;99.90;;;;;;5022575;28;20045;-57
2022/11/22 12:15:06;;;;;;;2.22;0.90;;;7.60;99.90;;;;;;5024214;28;20053;-58
2022/11/22 12:18:47;;;;;;;2.72;1.23;;;7.60;99.90;;;;;;5028089;28;20033;-59
2022/11/22 12:22:26;;;;;;;0.88;0.73;;;7.60;99.90;;;;;;5020129;28;20045;-60
2022/11/22 12:25:37;;;;;;;0.70;0.50;;;7.60;99.90;;;;;;5020799;28;20041;-61
2022/11/22 12:28:41;;;;;;;1.15;0.60;;;7.60;99.90;;;;;;5019853;28;20033;-57
2022/11/22 12:31:52;;;;;;;1.50;0.70;;;7.60;99.90;;;;;;5023359;28;20037;-58
2022/11/22 12:35:06;;;;;;;1.77;0.75;;;7.60;99.90;;;;;;5018968;28;20029;-57
2022/11/22 12:38:26;;;;;;;0.70;0.50;;;7.60;99.90;;;;;;5023529;28;20044;-57
2022/11/22 12:41:32;;;;;;;2.75;0.68;;;7.50;99.90;;;;;;5030784;28;20045;-60
2022/11/22 12:44:44;;;;;;;1.40;0.73;;;7.60;99.90;;;;;;5016243;28;20414;-58
2022/11/22 12:47:51;;;;;;;2.80;0.60;;;7.60;99.90;;;;;;5019720;28;20041;-58
2022/11/22 12:51:21;;;;;;;1.52;0.40;;;7.50;99.90;;;;;;5017648;28;20033;-56
2022/11/22 12:55:03;;;;;;;1.25;0.60;;;7.50;99.90;;;;;;5018629;28;20045;-57
2022/11/22 12:58:10;;;;;;;0.60;0.57;;;7.40;99.90;;;;;;5025302;28;20045;-58
2022/11/22 13:01:28;;;;;;;0.65;0.60;;;7.40;99.90;;;;;;5028262;28;20045;-56
2022/11/22 13:04:53;;;;;;;0.40;0.40;;;7.40;99.90;;;;;;5042211;28;20424;-56
2022/11/22 13:08:08;;;;;;;2.03;0.50;;;7.50;99.90;;;;;;5025084;28;20045;-61
2022/11/22 13:11:31;;;;;;;0.93;0.47;;;7.50;99.90;;;;;;5021329;28;20037;-60
2022/11/22 13:14:46;;;;;;;1.05;0.57;;;7.60;99.90;;;;;;5026153;28;20041;-59
2022/11/22 13:17:52;;;;;;;1.02;0.80;;;7.60;99.90;;;;;;5029333;28;20041;-58
2022/11/22 13:21:22;;;;;;;1.02;0.75;;;7.60;99.90;;;;;;5037338;28;20049;-54
2022/11/22 13:25:08;;;;;;;1.30;0.90;;;7.50;99.90;;;;;;5023736;28;20037;-56
2022/11/22 13:28:16;;;;;;;4.70;0.80;;;7.50;99.90;;;;;;5024053;28;20041;-58
2022/11/22 13:31:23;;;;;;;0.80;0.60;;;7.50;99.90;;;;;;5012512;28;20394;-57
2022/11/22 13:34:29;;;;;;;0.95;0.60;;;7.50;99.90;;;;;;5026446;28;20025;-56
2022/11/22 13:37:37;;;;;;;0.93;0.60;;;7.50;99.90;;;;;;5029193;28;20048;-61
2022/11/22 13:40:49;;;;;;;0.68;0.55;;;7.50;99.90;;;;;;5027359;28;20555;-59
2022/11/22 13:44:21;;;;;;;1.77;0.65;;;7.50;99.90;;;;;;5035807;28;20041;-59
2022/11/22 13:47:25;;;;;;;1.35;0.70;;;7.50;99.90;;;;;;5039259;28;20038;-57
2022/11/22 13:50:38;;;;;;;1.52;0.77;;;7.50;99.90;;;;;;5026778;28;20041;-57
2022/11/22 13:53:48;;;;;;;2.20;0.80;;;7.50;99.90;;;;;;5026193;28;20065;-59
2022/11/22 13:56:59;;;;;;;0.98;0.68;;;7.60;99.90;;;;;;5011954;28;20042;-60
2022/11/22 14:00:22;;;;;;;1.23;0.65;;;7.50;99.90;;;;;;5011897;28;20038;-58
2022/11/22 14:03:32;;;;;;;0.93;0.88;;;7.60;99.90;;;;;;5020806;28;20041;-59
2022/11/22 14:06:37;;;;;;;1.00;0.90;;;7.60;99.90;;;;;;5022664;28;20033;-57
2022/11/22 14:09:55;;;;;;;3.15;0.88;;;7.60;99.90;;;;;;5025307;28;20065;-60
2022/11/22 14:13:11;;;;;;;2.28;0.98;;;7.60;99.90;;;;;;5022874;28;20037;-60
2022/11/22 14:16:26;;;;;;;0.90;0.65;;;7.60;99.90;;;;;;5027168;28;20045;-59
2022/11/22 14:20:15;;;;;;;1.77;0.88;;;7.60;99.90;;;;;;5026853;28;20041;-59
2022/11/22 14:23:52;;;;;;;1.92;1.13;;;7.70;99.90;;;;;;5020714;28;20476;-58
2022/11/22 14:27:23;;;;;;;5.88;1.20;;;7.70;99.90;;;;;;5027460;28;20041;-54
2022/11/22 14:30:45;;;;;;;1.00;0.80;;;7.70;99.90;;;;;;5024541;28;20464;-62
2022/11/22 14:34:22;;;;;;;1.42;1.00;;;7.70;99.90;;;;;;5020854;28;20041;-60
2022/11/22 14:37:31;;;;;;;1.17;0.90;;;7.70;99.90;;;;;;5031996;22;20033;-71
2022/11/22 14:40:37;;;;;;;1.80;0.90;;;7.70;99.90;;;;;;5031644;28;20041;-69
2022/11/22 14:43:43;;;;;;;3.47;1.50;;;7.70;99.90;;;;;;5025340;28;20049;-71
2022/11/22 14:47:11;;;;;;;2.65;0.90;;;7.70;99.90;;;;;;5028460;28;20045;-71
2022/11/22 14:50:37;;;;;;;2.17;1.30;;;7.70;99.90;;;;;;5029757;28;20037;-71
2022/11/22 14:53:50;;;;;;;1.23;0.70;;;7.60;99.90;;;;;;5027194;28;20357;-71
2022/11/22 14:56:59;;;;;;;3.95;1.10;;;7.50;99.90;;;;;;5038987;28;20037;-71
2022/11/22 15:00:08;;;;;;;1.83;1.10;;;7.50;99.90;;;;;;5027716;28;20033;-72
2022/11/22 15:03:36;;;;;;;2.03;1.10;;;7.50;99.90;;;;;;5036017;28;20041;-72
2022/11/22 15:06:59;;;;;;;3.28;1.00;;;7.40;99.90;;;;;;5041289;28;20033;-72
2022/11/22 15:10:30;;;;;;;1.67;1.10;;;7.30;99.90;;;;;;5030616;28;20029;-72
2022/11/22 15:13:54;;;;;;;1.50;0.88;;;7.30;99.90;;;;;;5036248;28;20037;-72
2022/11/22 15:16:59;;;;;;;0.90;0.70;;;7.10;99.90;;;;;;5011059;28;20034;-72
2022/11/22 15:20:42;;;;;;;1.63;0.80;;;7.10;99.90;;;;;;5037621;28;20401;-73
2022/11/22 15:23:46;;;;;;;3.25;0.57;;;6.90;99.90;;;;;;5018809;28;20033;-72
2022/11/22 15:26:52;;;;;;;3.80;0.50;;;6.90;99.90;;;;;;5027497;28;20030;-72
2022/11/22 15:30:16;;;;;;;0.43;0.40;;;6.80;99.90;;;;;;5035877;28;20025;-71
2022/11/22 15:33:27;;;;;;;0.50;0.40;;;6.70;99.90;;;;;;5024495;28;20041;-73
2022/11/22 15:36:57;;;;;;;1.10;0.50;;;6.70;99.90;;;;;;5030863;28;20045;-73
2022/11/22 15:40:18;;;;;;;0.75;0.50;;;6.60;99.90;;;;;;5026160;28;20377;-72
2022/11/22 15:43:25;;;;;;;1.33;0.60;;;6.60;99.90;;;;;;5031602;28;20029;-72
2022/11/22 15:46:48;;;;;;;4.20;1.08;;;6.60;99.90;;;;;;5024146;28;20396;-72
2022/11/22 15:50:10;;;;;;;1.63;0.82;;;6.50;99.90;;;;;;5032118;28;20030;-75
2022/11/22 15:53:33;;;;;;;2.10;1.48;;;6.50;99.90;;;;;;5027612;28;20045;-72
2022/11/22 15:57:02;;;;;;;3.35;2.60;;;6.50;99.90;;;;;;5031994;28;20045;-72
2022/11/22 16:00:23;;;;;;;9.13;4.22;;;6.50;99.90;;;;;;5026641;28;20361;-71
2022/11/22 16:03:52;;;;;;;1.15;0.70;;;6.40;99.90;;;;;;5024819;28;20393;-72
2022/11/22 16:07:16;;;;;;;1.58;0.85;;;6.40;99.90;;;;;;5023996;28;20042;-72
2022/11/22 16:10:41;;;;;;;0.50;0.40;;;6.30;99.90;;;;;;5025480;28;20468;-72
2022/11/22 16:13:45;;;;;;;2.03;0.90;;;6.30;99.90;;;;;;5036570;28;20049;-73
2022/11/22 16:17:09;;;;;;;3.80;2.00;;;6.30;99.90;;;;;;5031590;28;20058;-71
2022/11/22 16:20:27;;;;;;;2.60;1.08;;;6.20;99.90;;;;;;5026910;28;20484;-72
2022/11/22 16:23:33;;;;;;;3.85;2.42;;;6.20;99.90;;;;;;5030834;28;20041;-72
2022/11/22 16:26:38;;;;;;;12.02;5.40;;;6.20;99.90;;;;;;5028677;28;20365;-72
2022/11/22 16:33:12;;;;;;;1.98;1.35;;;6.20;99.90;;;;;;5021156;28;20041;-73
2022/11/22 16:36:19;;;;;;;2.55;1.40;;;6.20;99.90;;;;;;5020261;28;20049;-72
2022/11/22 16:39:24;;;;;;;4.70;3.00;;;6.20;99.90;;;;;;5021321;28;20041;-73
2022/11/22 16:42:30;;;;;;;6.50;3.90;;;6.10;99.90;;;;;;5028184;28;20033;-73
2022/11/22 16:45:34;;;;;;;3.63;2.63;;;6.20;99.90;;;;;;5029789;28;20029;-73
2022/11/22 16:48:40;;;;;;;6.55;3.53;;;6.20;99.90;;;;;;5032562;28;20033;-73
2022/11/22 16:51:46;;;;;;;7.82;4.75;;;6.20;99.90;;;;;;5033519;28;20037;-72
2022/11/22 16:54:50;;;;;;;9.77;6.32;;;6.10;99.90;;;;;;5031178;28;20030;-72
2022/11/22 16:57:54;;;;;;;3.95;2.28;;;6.10;99.90;;;;;;5028295;28;20030;-73
2022/11/22 17:00:59;;;;;;;2.63;2.00;;;6.10;99.90;;;;;;5029912;28;20041;-74
2022/11/22 17:04:04;;;;;;;4.10;2.75;;;6.10;99.90;;;;;;5031794;28;20041;-73
2022/11/22 17:07:10;;;;;;;2.03;1.50;;;6.10;99.90;;;;;;5042588;28;20037;-73
2022/11/22 17:10:15;;;;;;;2.88;1.95;;;6.10;99.90;;;;;;5028237;28;20034;-73
2022/11/22 17:16:48;;;;;;;0.80;0.63;;;6.20;99.90;;;;;;5032305;28;20495;-73
2022/11/22 17:20:11;;;;;;;1.58;0.73;;;6.20;99.90;;;;;;5032964;28;20033;-72
2022/11/22 17:23:37;;;;;;;1.20;0.85;;;6.20;99.90;;;;;;5032623;28;20049;-72
2022/11/22 17:26:41;;;;;;;0.65;0.60;;;6.20;99.90;;;;;;5033421;28;20361;-72
2022/11/22 17:29:46;;;;;;;3.15;1.42;;;6.20;99.90;;;;;;5043658;28;20479;-72
2022/11/22 17:33:09;;;;;;;1.33;0.70;;;6.20;99.90;;;;;;5033116;28;20049;-72
2022/11/22 17:36:24;;;;;;;3.90;2.58;;;6.20;99.90;;;;;;5033197;28;20033;-72